Time;durP1;ratioP1;P1;durP2;ratioP2;P2;SDS_P1;SDS_P2;PMS_P1;PMS_P2;Temp;Humidity;BMP_temperature;BMP_pressure;BME280_temperature;BME280_humidity;BME280_pressure;Samples;Min_cycle;Max_cycle;Signal;HPM_P1;HPM_P2
2021/12/23 00:01:41;;;;;;;17.05;11.30;;;0.90;99.90;;;;;;5041020;28;20026;-42
2021/12/23 00:04:10;;;;;;;16.90;11.32;;;0.90;99.90;;;;;;5038854;28;20036;-43
2021/12/23 00:06:35;;;;;;;17.25;11.43;;;0.90;99.90;;;;;;5043766;28;20033;-43
2021/12/23 00:09:03;;;;;;;16.70;11.15;;;0.90;99.90;;;;;;5035915;28;20017;-43
2021/12/23 00:11:29;;;;;;;14.25;11.05;;;0.90;99.90;;;;;;5044843;28;20030;-43
2021/12/23 00:14:03;;;;;;;17.05;11.35;;;0.90;99.90;;;;;;5034271;28;20059;-41
2021/12/23 00:16:42;;;;;;;15.88;11.02;;;0.90;99.90;;;;;;5045043;28;20025;-42
2021/12/23 00:24:39;;;;;;;14.38;10.05;;;0.90;99.90;;;;;;5028173;28;20055;-43
2021/12/23 00:27:07;;;;;;;14.10;9.35;;;0.90;99.90;;;;;;5044603;28;20045;-41
2021/12/23 00:29:34;;;;;;;16.35;11.15;;;0.90;99.90;;;;;;5034644;28;20032;-42
2021/12/23 00:31:59;;;;;;;14.82;10.80;;;1.00;99.90;;;;;;5044388;28;20049;-43
2021/12/23 00:34:26;;;;;;;15.30;11.10;;;1.00;99.90;;;;;;5034836;28;20053;-43
2021/12/23 00:36:54;;;;;;;16.08;11.40;;;1.00;99.90;;;;;;5045580;28;20029;-42
2021/12/23 00:39:19;;;;;;;15.63;11.32;;;1.00;99.90;;;;;;5033283;28;20021;-44
2021/12/23 00:41:45;;;;;;;16.75;11.40;;;1.00;99.90;;;;;;5046367;28;20032;-43
2021/12/23 00:44:13;;;;;;;14.80;10.77;;;1.00;99.90;;;;;;5033530;28;20033;-44
2021/12/23 00:46:39;;;;;;;17.48;12.10;;;1.00;99.90;;;;;;5045585;28;20519;-43
2021/12/23 00:49:05;;;;;;;17.25;11.95;;;1.00;99.90;;;;;;5034209;28;20065;-44
2021/12/23 00:51:35;;;;;;;16.42;11.75;;;1.00;99.90;;;;;;5045510;28;20115;-44
2021/12/23 00:54:04;;;;;;;15.10;10.80;;;1.00;99.90;;;;;;5035810;28;20397;-42
2021/12/23 00:56:38;;;;;;;15.38;10.98;;;1.00;99.90;;;;;;5043326;28;20029;-43
2021/12/23 00:59:08;;;;;;;16.83;11.82;;;1.00;99.90;;;;;;5036962;28;20029;-44
2021/12/23 01:01:33;;;;;;;21.85;14.70;;;1.00;99.90;;;;;;5042991;28;20052;-44
2021/12/23 01:03:59;;;;;;;20.60;14.35;;;1.00;99.90;;;;;;5038339;28;20021;-43
2021/12/23 01:06:24;;;;;;;17.70;12.80;;;1.10;99.90;;;;;;5042243;28;20021;-43
2021/12/23 01:08:50;;;;;;;19.73;13.63;;;1.00;99.90;;;;;;5045137;28;20499;-43
2021/12/23 01:11:17;;;;;;;18.42;12.68;;;1.10;99.90;;;;;;5040391;28;20127;-45
2021/12/23 01:13:58;;;;;;;18.27;12.57;;;1.00;99.90;;;;;;5047705;28;20126;-42
2021/12/23 01:16:47;;;;;;;15.65;11.68;;;1.10;99.90;;;;;;5041109;28;20100;-43
2021/12/23 01:19:12;;;;;;;17.13;12.65;;;1.10;99.90;;;;;;5044573;28;20037;-43
2021/12/23 01:21:38;;;;;;;17.33;12.60;;;1.10;99.90;;;;;;5040729;28;20389;-43
2021/12/23 01:24:04;;;;;;;16.65;11.30;;;1.10;99.90;;;;;;5047488;28;20045;-43
2021/12/23 01:26:29;;;;;;;18.50;12.63;;;1.10;99.90;;;;;;5037681;28;20033;-43
2021/12/23 01:28:58;;;;;;;18.08;12.40;;;1.10;99.90;;;;;;5047235;28;20112;-43
2021/12/23 01:31:26;;;;;;;17.83;12.90;;;1.10;99.90;;;;;;5037457;28;20079;-42
2021/12/23 01:33:52;;;;;;;15.98;11.38;;;1.10;99.90;;;;;;5047832;28;20044;-42
2021/12/23 01:36:18;;;;;;;19.83;12.20;;;1.10;99.90;;;;;;5037893;28;20025;-43
2021/12/23 01:38:44;;;;;;;16.17;11.75;;;1.10;99.90;;;;;;5048652;28;20036;-44
2021/12/23 01:41:09;;;;;;;18.45;12.93;;;1.10;99.90;;;;;;5035880;28;20108;-43
2021/12/23 01:43:35;;;;;;;18.30;12.02;;;1.10;99.90;;;;;;5048963;28;20477;-43
2021/12/23 01:46:02;;;;;;;17.83;11.48;;;1.10;99.90;;;;;;5035755;28;20025;-43
2021/12/23 01:48:27;;;;;;;16.92;12.20;;;1.10;99.90;;;;;;5048925;28;20057;-43
2021/12/23 01:50:53;;;;;;;16.33;11.95;;;1.10;99.90;;;;;;5038985;28;20126;-43
2021/12/23 01:53:18;;;;;;;18.80;12.35;;;1.10;99.90;;;;;;5045263;28;20044;-44
2021/12/23 01:55:46;;;;;;;14.75;11.00;;;1.10;99.90;;;;;;5042037;28;20559;-44
2021/12/23 01:58:13;;;;;;;16.83;11.25;;;1.10;99.90;;;;;;5043179;28;20063;-42
2021/12/23 02:00:44;;;;;;;15.52;11.07;;;1.10;99.90;;;;;;5043493;28;20029;-43
2021/12/23 02:03:10;;;;;;;16.65;11.70;;;1.10;99.90;;;;;;5041095;28;20033;-43
2021/12/23 02:05:35;;;;;;;15.82;10.95;;;1.10;99.90;;;;;;5045951;28;20361;-43
2021/12/23 02:08:01;;;;;;;18.15;11.30;;;1.10;99.90;;;;;;5038224;28;20047;-43
2021/12/23 02:10:28;;;;;;;16.33;10.75;;;1.10;99.90;;;;;;5046523;28;20114;-46
2021/12/23 02:12:54;;;;;;;13.88;9.73;;;1.10;99.90;;;;;;5037006;28;20404;-42
2021/12/23 02:15:24;;;;;;;13.25;9.88;;;1.10;99.90;;;;;;5046302;28;20036;-43
2021/12/23 02:17:50;;;;;;;17.33;11.60;;;1.10;99.90;;;;;;5036121;28;20111;-43
2021/12/23 02:20:25;;;;;;;15.95;11.40;;;1.10;99.90;;;;;;5049023;28;20094;-43
2021/12/23 02:22:51;;;;;;;16.67;11.52;;;1.10;99.90;;;;;;5035269;28;20024;-43
2021/12/23 02:25:17;;;;;;;15.73;11.85;;;1.10;99.90;;;;;;5048353;28;20082;-42
2021/12/23 02:27:44;;;;;;;16.48;12.07;;;1.00;99.90;;;;;;5035213;28;20057;-43
2021/12/23 02:30:17;;;;;;;16.23;10.52;;;1.00;99.90;;;;;;5048165;28;20822;-43
2021/12/23 02:32:43;;;;;;;16.95;11.27;;;1.00;99.90;;;;;;5035334;28;20368;-43
2021/12/23 02:35:13;;;;;;;16.85;11.55;;;0.90;99.90;;;;;;5046964;28;20024;-43
2021/12/23 02:37:39;;;;;;;16.85;11.20;;;0.90;99.90;;;;;;5037055;28;20117;-42
2021/12/23 02:40:06;;;;;;;17.30;11.68;;;0.80;99.90;;;;;;5046618;28;20029;-43
2021/12/23 02:42:32;;;;;;;15.77;11.77;;;0.80;99.90;;;;;;5037728;28;20018;-43
2021/12/23 02:44:58;;;;;;;15.80;11.02;;;0.70;99.90;;;;;;5044340;28;20029;-42
2021/12/23 02:47:24;;;;;;;16.30;10.95;;;0.70;99.90;;;;;;5041201;28;20010;-44
2021/12/23 02:49:49;;;;;;;16.45;11.73;;;0.70;99.90;;;;;;5040739;28;20101;-44
2021/12/23 02:52:15;;;;;;;15.85;11.00;;;0.60;99.90;;;;;;5043689;28;20045;-43
2021/12/23 02:54:41;;;;;;;13.60;9.90;;;0.60;99.90;;;;;;5039034;28;20109;-43
2021/12/23 02:57:07;;;;;;;14.10;10.25;;;0.50;99.90;;;;;;5045452;28;20127;-43
2021/12/23 02:59:33;;;;;;;14.88;10.70;;;0.50;99.90;;;;;;5035963;28;20021;-42
2021/12/23 03:02:00;;;;;;;14.90;10.30;;;0.40;99.90;;;;;;5045533;28;20033;-42
2021/12/23 03:04:25;;;;;;;15.05;10.35;;;0.40;99.90;;;;;;5035528;28;20039;-43
2021/12/23 03:06:55;;;;;;;16.60;11.77;;;0.40;99.90;;;;;;5047674;28;20544;-43
2021/12/23 03:09:21;;;;;;;15.35;10.93;;;0.40;99.90;;;;;;5034499;28;20456;-43
2021/12/23 03:11:47;;;;;;;17.30;11.82;;;0.40;99.90;;;;;;5045779;28;20036;-43
2021/12/23 03:14:14;;;;;;;14.75;10.77;;;0.50;99.90;;;;;;5035097;28;20038;-43
2021/12/23 03:16:39;;;;;;;16.33;10.65;;;0.50;99.90;;;;;;5046745;28;20029;-43
2021/12/23 03:19:06;;;;;;;16.17;10.88;;;0.50;99.90;;;;;;5035576;28;20735;-44
2021/12/23 03:21:32;;;;;;;14.43;10.82;;;0.50;99.90;;;;;;5046473;28;20506;-43
2021/12/23 03:23:58;;;;;;;17.33;11.38;;;0.50;99.90;;;;;;5036403;28;20848;-43
2021/12/23 03:26:24;;;;;;;16.23;11.15;;;0.50;99.90;;;;;;5043844;28;20108;-44
2021/12/23 03:28:52;;;;;;;14.98;10.43;;;0.50;99.90;;;;;;5039979;28;20033;-44
2021/12/23 03:31:18;;;;;;;17.10;12.02;;;0.50;99.90;;;;;;5041300;28;20036;-44
2021/12/23 03:33:43;;;;;;;15.25;11.25;;;0.50;99.90;;;;;;5042575;28;20025;-43
2021/12/23 03:36:09;;;;;;;14.57;10.98;;;0.50;99.90;;;;;;5038723;28;20051;-46
2021/12/23 03:38:35;;;;;;;17.45;12.45;;;0.50;99.90;;;;;;5044246;28;20021;-42
2021/12/23 03:41:00;;;;;;;17.17;11.98;;;0.40;99.90;;;;;;5036256;28;20104;-43
2021/12/23 03:43:28;;;;;;;19.10;11.90;;;0.40;99.90;;;;;;5045449;28;20025;-43
2021/12/23 03:45:54;;;;;;;19.15;12.40;;;0.40;99.90;;;;;;5034742;28;20056;-43
2021/12/23 03:48:19;;;;;;;17.95;11.55;;;0.40;99.90;;;;;;5046108;28;20583;-44
2021/12/23 03:50:46;;;;;;;20.35;12.68;;;0.30;99.90;;;;;;5034660;28;20033;-43
2021/12/23 03:53:12;;;;;;;17.60;11.10;;;0.30;99.90;;;;;;5041713;28;20550;-43
2021/12/23 03:55:38;;;;;;;20.05;12.45;;;0.20;99.90;;;;;;5038757;28;20540;-42
2021/12/23 03:58:04;;;;;;;18.20;12.48;;;0.20;99.90;;;;;;5026767;28;20128;-44
2021/12/23 04:00:30;;;;;;;17.00;11.80;;;0.20;99.90;;;;;;5037459;28;20124;-43
2021/12/23 04:02:55;;;;;;;17.95;12.38;;;0.20;99.90;;;;;;5027005;28;20100;-43
2021/12/23 04:05:22;;;;;;;19.73;13.10;;;0.20;99.90;;;;;;5036116;28;20025;-41
2021/12/23 04:07:48;;;;;;;18.25;13.27;;;0.20;99.90;;;;;;5029004;28;20026;-44
2021/12/23 04:10:17;;;;;;;19.50;13.68;;;0.20;99.90;;;;;;5033411;28;20095;-45
2021/12/23 04:12:43;;;;;;;18.42;12.43;;;0.30;99.90;;;;;;5031800;28;20584;-43
2021/12/23 04:15:09;;;;;;;19.75;12.43;;;0.30;99.90;;;;;;5030732;28;20021;-43
2021/12/23 04:17:35;;;;;;;19.77;13.32;;;0.30;99.90;;;;;;5034113;28;20029;-43
2021/12/23 04:20:15;;;;;;;19.90;13.15;;;0.40;99.90;;;;;;5028205;28;20043;-43
2021/12/23 04:22:41;;;;;;;20.35;13.60;;;0.50;99.90;;;;;;5034932;28;20116;-44
2021/12/23 04:25:08;;;;;;;22.08;13.73;;;0.50;99.90;;;;;;5027576;28;20474;-43
2021/12/23 04:27:33;;;;;;;22.92;15.27;;;0.50;99.90;;;;;;5036601;28;20419;-43
2021/12/23 04:29:59;;;;;;;21.88;13.40;;;0.50;99.90;;;;;;5028143;28;20032;-43
2021/12/23 04:32:24;;;;;;;20.48;15.35;;;0.50;99.90;;;;;;5037608;28;20045;-42
2021/12/23 04:34:49;;;;;;;22.50;15.38;;;0.60;99.90;;;;;;5026121;28;20482;-43
2021/12/23 04:37:16;;;;;;;24.40;16.38;;;0.60;99.90;;;;;;5038276;28;20447;-42
2021/12/23 04:39:41;;;;;;;24.95;16.30;;;0.60;99.90;;;;;;5026230;28;20450;-43
2021/12/23 04:42:07;;;;;;;25.05;16.90;;;0.70;99.90;;;;;;5041053;28;20156;-42
2021/12/23 04:44:32;;;;;;;22.27;15.27;;;0.70;99.90;;;;;;5030121;28;20064;-43
2021/12/23 04:46:58;;;;;;;22.38;15.48;;;0.70;99.90;;;;;;5041192;28;20032;-43
2021/12/23 04:49:23;;;;;;;24.90;16.95;;;0.70;99.90;;;;;;5030313;28;20031;-43
2021/12/23 04:51:49;;;;;;;26.15;17.33;;;0.70;99.90;;;;;;5038985;28;20025;-43
2021/12/23 04:54:15;;;;;;;24.80;17.05;;;0.80;99.90;;;;;;5033985;28;20073;-42
2021/12/23 04:56:40;;;;;;;23.83;16.20;;;0.80;99.90;;;;;;5035033;28;20029;-44
2021/12/23 04:59:06;;;;;;;23.52;15.27;;;0.80;99.90;;;;;;5036471;28;20021;-43
2021/12/23 05:01:32;;;;;;;28.30;17.10;;;0.80;99.90;;;;;;5032485;28;20021;-42
2021/12/23 05:03:59;;;;;;;24.00;15.98;;;0.80;99.90;;;;;;5038068;28;20044;-44
2021/12/23 05:06:24;;;;;;;22.65;16.05;;;0.90;99.90;;;;;;5031059;28;20021;-42
2021/12/23 05:08:50;;;;;;;26.33;17.05;;;0.90;99.90;;;;;;5040783;28;20040;-45
2021/12/23 05:11:16;;;;;;;23.92;16.08;;;0.90;99.90;;;;;;5030393;28;20029;-43
2021/12/23 05:13:42;;;;;;;25.85;15.93;;;0.90;99.90;;;;;;5040911;28;20076;-44
2021/12/23 05:16:08;;;;;;;25.00;17.05;;;0.90;99.90;;;;;;5029477;28;20064;-44
2021/12/23 05:18:33;;;;;;;21.80;14.95;;;0.90;99.90;;;;;;5041056;28;20056;-44
2021/12/23 05:21:00;;;;;;;24.25;16.65;;;0.90;99.90;;;;;;5029906;28;20033;-42
2021/12/23 05:23:25;;;;;;;24.42;16.08;;;0.90;99.90;;;;;;5040975;28;20060;-43
2021/12/23 05:25:51;;;;;;;24.48;15.93;;;0.90;99.90;;;;;;5029117;28;20026;-43
2021/12/23 05:28:16;;;;;;;25.75;16.10;;;0.90;99.90;;;;;;5040721;28;20040;-42
2021/12/23 05:30:42;;;;;;;27.13;18.70;;;0.90;99.90;;;;;;5030063;28;20639;-43
2021/12/23 05:33:07;;;;;;;30.25;19.35;;;0.90;99.90;;;;;;5036805;28;20033;-42
2021/12/23 05:35:33;;;;;;;27.75;18.40;;;0.90;99.90;;;;;;5034086;28;20060;-44
2021/12/23 05:37:58;;;;;;;26.70;17.77;;;0.90;99.90;;;;;;5033652;28;20469;-43
2021/12/23 05:40:28;;;;;;;30.80;19.00;;;0.90;99.90;;;;;;5036158;28;20053;-44
2021/12/23 05:42:55;;;;;;;28.42;17.80;;;0.90;99.90;;;;;;5032436;28;20026;-42
2021/12/23 05:45:20;;;;;;;25.67;17.10;;;0.90;99.90;;;;;;5037335;28;20030;-43
2021/12/23 05:47:47;;;;;;;26.85;16.90;;;0.90;99.90;;;;;;5030049;28;20076;-43
2021/12/23 05:50:14;;;;;;;25.17;16.90;;;0.80;99.90;;;;;;5040648;28;20055;-43
2021/12/23 05:52:41;;;;;;;31.38;21.08;;;0.80;99.90;;;;;;5029355;28;20063;-44
2021/12/23 05:55:08;;;;;;;32.25;20.13;;;0.80;99.90;;;;;;5040223;28;20014;-43
2021/12/23 05:57:34;;;;;;;32.05;20.05;;;0.80;99.90;;;;;;5029204;28;20256;-43
2021/12/23 06:00:00;;;;;;;31.40;19.70;;;0.80;99.90;;;;;;5035685;28;20033;-44
2021/12/23 06:02:26;;;;;;;27.90;18.85;;;0.80;99.90;;;;;;5048750;28;20102;-43
2021/12/23 06:04:55;;;;;;;28.98;19.20;;;0.80;99.90;;;;;;5036280;28;20373;-43
2021/12/23 06:07:21;;;;;;;26.40;17.67;;;0.80;99.90;;;;;;5048286;28;20037;-42
2021/12/23 06:09:47;;;;;;;30.88;18.67;;;0.80;99.90;;;;;;5036155;28;20036;-42
2021/12/23 06:12:12;;;;;;;25.70;16.88;;;0.80;99.90;;;;;;5048465;28;20033;-44
2021/12/23 06:14:38;;;;;;;27.55;18.02;;;0.80;99.90;;;;;;5037846;28;20030;-44
2021/12/23 06:17:03;;;;;;;27.27;18.77;;;0.70;99.90;;;;;;5045158;28;20021;-43
2021/12/23 06:19:29;;;;;;;30.35;19.83;;;0.70;99.90;;;;;;5041744;28;20098;-44
2021/12/23 06:21:55;;;;;;;28.70;19.38;;;0.70;99.90;;;;;;5041932;28;20647;-43
2021/12/23 06:24:20;;;;;;;29.10;19.00;;;0.60;99.90;;;;;;5044106;28;20033;-42
2021/12/23 06:26:46;;;;;;;28.83;19.13;;;0.60;99.90;;;;;;5038698;28;20353;-44
2021/12/23 06:29:11;;;;;;;28.35;18.23;;;0.60;99.90;;;;;;5046725;28;20074;-43
2021/12/23 06:31:37;;;;;;;29.65;18.08;;;0.60;99.90;;;;;;5037288;28;20059;-42
2021/12/23 06:34:03;;;;;;;27.58;16.77;;;0.60;99.90;;;;;;5046297;28;20037;-42
2021/12/23 06:36:28;;;;;;;29.08;19.55;;;0.60;99.90;;;;;;5036711;28;20017;-43
2021/12/23 06:38:54;;;;;;;28.83;18.30;;;0.60;99.90;;;;;;5047386;28;20033;-44
2021/12/23 06:41:20;;;;;;;30.27;19.65;;;0.60;99.90;;;;;;5034951;28;20052;-43
2021/12/23 06:43:46;;;;;;;28.50;18.15;;;0.60;99.90;;;;;;5047913;28;20036;-44
2021/12/23 06:46:12;;;;;;;24.63;16.95;;;0.60;99.90;;;;;;5035848;28;20014;-44
2021/12/23 06:48:37;;;;;;;29.95;18.60;;;0.70;99.90;;;;;;5027124;28;20116;-43
2021/12/23 06:51:03;;;;;;;27.08;17.05;;;0.70;99.90;;;;;;5037464;28;20440;-43
2021/12/23 06:53:29;;;;;;;30.00;19.75;;;0.70;99.90;;;;;;5042160;28;20033;-44
2021/12/23 06:55:55;;;;;;;28.02;18.27;;;0.70;99.90;;;;;;5040216;28;20025;-42
2021/12/23 06:58:23;;;;;;;26.83;18.70;;;0.70;99.90;;;;;;5029913;28;20021;-44
2021/12/23 07:00:50;;;;;;;31.83;19.60;;;0.80;99.90;;;;;;5033050;28;20029;-43
2021/12/23 07:03:16;;;;;;;26.38;17.45;;;0.80;99.90;;;;;;5030335;28;20017;-43
2021/12/23 07:05:42;;;;;;;29.83;19.50;;;0.80;99.90;;;;;;5030102;28;20029;-43
2021/12/23 07:08:13;;;;;;;30.77;20.38;;;0.80;99.90;;;;;;5035698;28;20033;-43
2021/12/23 07:10:39;;;;;;;29.58;17.55;;;0.80;99.90;;;;;;5027461;28;20032;-43
2021/12/23 07:13:05;;;;;;;28.52;17.95;;;0.80;99.90;;;;;;5036288;28;20033;-43
2021/12/23 07:15:32;;;;;;;26.55;17.35;;;0.90;99.90;;;;;;5027885;28;20113;-44
2021/12/23 07:18:00;;;;;;;28.30;18.65;;;0.90;99.90;;;;;;5036727;28;20029;-43
2021/12/23 07:20:27;;;;;;;29.48;19.60;;;0.90;99.90;;;;;;5028049;28;20018;-43
2021/12/23 07:22:53;;;;;;;28.25;17.95;;;0.90;99.90;;;;;;5037211;28;20065;-43
2021/12/23 07:25:19;;;;;;;29.05;17.75;;;0.90;99.90;;;;;;5027733;28;20124;-44
2021/12/23 07:27:46;;;;;;;26.60;16.88;;;0.90;99.90;;;;;;5038843;28;20111;-43
2021/12/23 07:30:15;;;;;;;28.13;18.17;;;0.90;99.90;;;;;;5025894;28;20053;-44
2021/12/23 07:32:41;;;;;;;28.52;18.15;;;0.90;99.90;;;;;;5026851;28;20037;-43
2021/12/23 07:35:07;;;;;;;26.15;17.23;;;0.90;99.90;;;;;;5027148;28;20025;-44
2021/12/23 07:37:34;;;;;;;24.13;16.13;;;0.90;99.90;;;;;;5029333;28;20377;-44
2021/12/23 07:40:00;;;;;;;26.65;17.23;;;1.00;99.90;;;;;;5044389;28;20172;-43
2021/12/23 07:42:27;;;;;;;24.30;15.48;;;1.00;99.90;;;;;;5038678;28;20021;-44
2021/12/23 07:44:54;;;;;;;22.70;15.38;;;1.00;99.90;;;;;;5041610;28;20107;-43
2021/12/23 07:47:19;;;;;;;27.75;17.52;;;1.00;99.90;;;;;;5041865;28;20029;-43
2021/12/23 07:49:45;;;;;;;24.40;15.90;;;1.00;99.90;;;;;;5033655;28;20028;-44
2021/12/23 07:52:11;;;;;;;25.98;15.90;;;1.10;99.90;;;;;;5032585;28;20020;-44
2021/12/23 07:54:39;;;;;;;23.73;15.55;;;1.10;99.90;;;;;;5035817;28;20024;-45
2021/12/23 07:57:06;;;;;;;23.08;15.50;;;1.10;99.90;;;;;;5031816;28;20653;-42
2021/12/23 07:59:32;;;;;;;22.13;14.90;;;1.10;99.90;;;;;;5031917;28;20465;-44
2021/12/23 08:01:58;;;;;;;26.23;15.75;;;1.10;99.90;;;;;;5026723;28;20099;-43
2021/12/23 08:04:25;;;;;;;28.60;17.58;;;1.20;99.90;;;;;;5037317;28;20473;-42
2021/12/23 08:06:57;;;;;;;29.00;16.77;;;1.20;99.90;;;;;;5025753;28;20532;-44
2021/12/23 08:09:24;;;;;;;26.05;16.58;;;1.10;99.90;;;;;;5034086;28;20017;-43
2021/12/23 08:11:51;;;;;;;24.17;15.52;;;1.20;99.90;;;;;;5046172;28;20407;-43
2021/12/23 08:14:16;;;;;;;26.27;16.77;;;1.20;99.90;;;;;;5030436;28;20047;-43
2021/12/23 08:16:43;;;;;;;29.77;18.25;;;1.20;99.90;;;;;;5028829;28;20538;-44
2021/12/23 08:19:09;;;;;;;29.38;17.58;;;1.20;99.90;;;;;;5042370;28;20033;-43
2021/12/23 08:21:34;;;;;;;29.10;17.52;;;1.20;99.90;;;;;;5029892;28;20492;-43
2021/12/23 08:24:00;;;;;;;27.63;18.20;;;1.10;99.90;;;;;;5039255;28;20079;-43
2021/12/23 08:26:29;;;;;;;26.83;17.15;;;1.10;99.90;;;;;;5032711;28;20838;-42
2021/12/23 08:28:56;;;;;;;30.70;17.92;;;1.20;99.90;;;;;;5037060;28;20544;-43
2021/12/23 08:31:21;;;;;;;30.60;18.98;;;1.20;99.90;;;;;;5035190;28;20038;-44
2021/12/23 08:33:48;;;;;;;29.90;18.08;;;1.20;99.90;;;;;;5034145;28;20051;-44
2021/12/23 08:36:13;;;;;;;28.83;17.75;;;1.20;99.90;;;;;;5037788;28;20029;-44
2021/12/23 08:38:43;;;;;;;30.52;19.00;;;1.20;99.90;;;;;;5032618;28;20022;-44
2021/12/23 08:41:09;;;;;;;28.17;17.58;;;1.20;99.90;;;;;;5038819;28;20025;-43
2021/12/23 08:43:37;;;;;;;31.83;18.80;;;1.20;99.90;;;;;;5030839;28;20112;-44
2021/12/23 08:46:03;;;;;;;30.23;18.25;;;1.20;99.90;;;;;;5041213;28;20135;-43
2021/12/23 08:48:29;;;;;;;30.77;18.48;;;1.30;99.90;;;;;;5031207;28;20513;-44
2021/12/23 08:50:55;;;;;;;31.25;19.25;;;1.30;99.90;;;;;;5040704;28;20029;-44
2021/12/23 08:53:21;;;;;;;29.50;19.23;;;1.30;99.90;;;;;;5035589;28;20045;-42
2021/12/23 08:55:47;;;;;;;28.23;17.42;;;1.30;99.90;;;;;;5036087;28;20036;-43
2021/12/23 08:58:12;;;;;;;28.77;18.60;;;1.30;99.90;;;;;;5050208;28;20538;-43
2021/12/23 09:00:39;;;;;;;30.88;18.75;;;1.40;99.90;;;;;;5036731;28;20081;-43
2021/12/23 09:03:07;;;;;;;27.05;17.15;;;1.40;99.90;;;;;;5048889;28;20520;-44
2021/12/23 09:05:34;;;;;;;30.30;18.42;;;1.40;99.90;;;;;;5038162;28;20017;-44
2021/12/23 09:08:04;;;;;;;28.02;17.33;;;1.40;99.90;;;;;;5048224;28;20028;-43
2021/12/23 09:10:30;;;;;;;30.63;18.60;;;1.50;99.90;;;;;;5039641;28;20064;-43
2021/12/23 09:12:56;;;;;;;26.83;17.02;;;1.50;99.90;;;;;;5045244;28;20061;-43
2021/12/23 09:15:22;;;;;;;26.02;16.80;;;1.50;99.90;;;;;;5041700;28;20421;-43
2021/12/23 09:17:48;;;;;;;29.10;18.55;;;1.60;99.90;;;;;;5041691;28;20021;-44
2021/12/23 09:20:16;;;;;;;33.53;18.88;;;1.60;99.90;;;;;;5044891;28;20036;-43
2021/12/23 09:22:42;;;;;;;32.47;20.52;;;1.60;99.90;;;;;;5039583;28;20942;-44
2021/12/23 09:25:18;;;;;;;31.67;20.15;;;1.60;99.90;;;;;;5047162;28;20107;-45
2021/12/23 09:27:57;;;;;;;33.03;19.95;;;1.70;99.90;;;;;;5039750;28;20132;-44
2021/12/23 09:33:08;;;;;;;28.38;18.55;;;1.70;99.90;;;;;;5041613;28;20048;-43
2021/12/23 09:35:34;;;;;;;34.97;21.67;;;1.80;99.90;;;;;;5046125;28;20330;-44
2021/12/23 09:38:00;;;;;;;33.58;20.60;;;1.80;99.90;;;;;;5039012;28;20472;-43
2021/12/23 09:40:29;;;;;;;36.40;21.15;;;1.80;99.90;;;;;;5047405;28;20509;-43
2021/12/23 09:42:59;;;;;;;35.97;21.08;;;1.80;99.90;;;;;;5037083;28;20090;-44
2021/12/23 09:45:25;;;;;;;36.08;20.17;;;1.80;99.90;;;;;;5046404;28;20021;-43
2021/12/23 09:47:50;;;;;;;35.00;19.70;;;1.80;99.90;;;;;;5037995;28;20029;-43
2021/12/23 09:50:21;;;;;;;36.75;22.75;;;1.80;99.90;;;;;;5049148;28;20052;-44
2021/12/23 09:52:51;;;;;;;37.55;22.35;;;1.80;99.90;;;;;;5034360;28;20017;-43
2021/12/23 09:55:20;;;;;;;32.47;19.33;;;1.80;99.90;;;;;;5048410;28;20116;-43
2021/12/23 09:57:47;;;;;;;34.15;20.23;;;1.90;99.90;;;;;;5034876;28;20377;-44
2021/12/23 10:00:15;;;;;;;36.08;21.35;;;1.90;99.90;;;;;;5049316;28;20025;-45
2021/12/23 10:02:42;;;;;;;33.78;20.80;;;2.00;99.90;;;;;;5035638;28;20384;-42
2021/12/23 10:05:15;;;;;;;34.28;21.58;;;2.00;99.90;;;;;;5047294;28;20048;-44
2021/12/23 10:07:41;;;;;;;;;;;2.00;99.90;;;;;;5036828;28;20488;-42
2021/12/23 10:10:13;;;;;;;34.53;20.27;;;2.10;99.90;;;;;;5047839;28;20368;-42
2021/12/23 10:27:21;;;;;;;33.60;20.42;;;2.20;99.90;;;;;;5035460;28;20104;-43
2021/12/23 10:32:55;;;;;;;34.88;20.20;;;2.40;99.90;;;;;;5044491;28;20028;-44
2021/12/23 10:38:11;;;;;;;31.52;19.75;;;2.40;99.90;;;;;;5040215;28;20136;-41
2021/12/23 10:40:43;;;;;;;30.65;19.73;;;2.40;99.90;;;;;;5040253;28;20041;-43
2021/12/23 10:43:11;;;;;;;31.48;19.67;;;2.40;99.90;;;;;;5032254;28;20048;-43
2021/12/23 10:45:52;;;;;;;35.13;20.83;;;2.50;99.90;;;;;;5034237;28;20137;-44
2021/12/23 10:48:22;;;;;;;35.47;21.40;;;2.60;99.90;;;;;;5032355;28;20013;-43
2021/12/23 10:50:51;;;;;;;38.13;22.83;;;2.60;99.90;;;;;;5034812;28;20037;-44
2021/12/23 10:59:09;;;;;;;32.78;20.48;;;2.70;99.90;;;;;;5036595;28;20048;-42
2021/12/23 11:01:56;;;;;;;35.22;21.73;;;2.70;99.90;;;;;;5029277;28;20400;-44
2021/12/23 11:04:22;;;;;;;34.00;20.58;;;2.80;99.90;;;;;;5037099;28;20426;-44
2021/12/23 11:06:56;;;;;;;37.17;21.33;;;2.80;99.90;;;;;;5030047;28;20047;-43
2021/12/23 11:41:50;;;;;;;28.30;17.30;;;3.10;99.90;;;;;;5035385;28;20068;-44
2021/12/23 11:44:16;;;;;;;28.27;16.70;;;3.20;99.90;;;;;;5044953;28;20036;-42
2021/12/23 11:46:56;;;;;;;32.35;17.95;;;3.20;99.90;;;;;;5035682;28;20385;-43
2021/12/23 11:49:22;;;;;;;30.38;18.23;;;3.20;99.90;;;;;;5046141;28;20013;-44
2021/12/23 11:54:25;;;;;;;26.42;17.25;;;3.20;99.90;;;;;;5047105;28;20049;-43
2021/12/23 11:56:58;;;;;;;31.67;19.52;;;3.20;99.90;;;;;;5033603;28;20029;-42
2021/12/23 11:59:25;;;;;;;35.75;20.40;;;3.20;99.90;;;;;;5045747;28;20060;-43
2021/12/23 12:01:52;;;;;;;32.28;20.88;;;3.20;99.90;;;;;;5033178;28;20499;-44
2021/12/23 12:04:29;;;;;;;33.95;19.05;;;3.30;99.90;;;;;;5037439;28;20040;-46
2021/12/23 12:06:57;;;;;;;31.15;18.70;;;3.30;99.90;;;;;;5031219;28;20457;-42
2021/12/23 12:09:26;;;;;;;33.30;19.05;;;3.30;99.90;;;;;;5046023;28;20718;-43
2021/12/23 12:12:11;;;;;;;29.75;18.80;;;3.40;99.90;;;;;;5033472;28;20516;-43
2021/12/23 12:14:38;;;;;;;31.95;18.35;;;3.40;99.90;;;;;;5006560;28;20091;-43
2021/12/23 12:17:25;;;;;;;30.95;18.92;;;3.40;99.90;;;;;;5034251;28;20111;-43
2021/12/23 12:20:34;;;;;;;32.88;19.98;;;3.50;99.90;;;;;;5006042;28;20030;-43
2021/12/23 12:23:11;;;;;;;32.25;18.88;;;3.50;99.90;;;;;;5030666;28;20034;-43
2021/12/23 12:25:41;;;;;;;30.88;18.80;;;3.60;99.90;;;;;;5031172;28;20063;-43
2021/12/23 12:28:06;;;;;;;33.28;20.10;;;3.60;99.90;;;;;;5027814;28;20439;-43
2021/12/23 12:30:48;;;;;;;32.42;19.77;;;3.70;99.90;;;;;;5046084;28;20021;-43
2021/12/23 12:33:23;;;;;;;28.83;17.55;;;3.70;99.90;;;;;;5033545;28;20121;-44
2021/12/23 12:35:58;;;;;;;32.65;19.00;;;3.80;99.90;;;;;;5044900;28;20090;-42
2021/12/23 12:38:28;;;;;;;31.92;19.67;;;3.90;99.90;;;;;;5034130;28;20455;-43
2021/12/23 12:40:57;;;;;;;28.88;18.15;;;3.90;99.90;;;;;;5043265;28;20041;-44
2021/12/23 12:44:23;;;;;;;32.78;18.50;;;3.90;99.90;;;;;;5038253;28;20037;-44
2021/12/23 12:49:37;;;;;;;29.15;18.10;;;4.00;99.90;;;;;;5026805;28;20124;-43
2021/12/23 12:52:30;;;;;;;30.02;18.42;;;4.00;99.90;;;;;;5026527;28;20064;-43
2021/12/23 12:55:11;;;;;;;27.95;16.52;;;4.10;99.90;;;;;;5031475;28;20070;-43
2021/12/23 12:57:47;;;;;;;28.08;16.90;;;4.10;99.90;;;;;;5030369;28;20067;-42
2021/12/23 13:00:39;;;;;;;33.20;18.80;;;4.20;99.90;;;;;;5031593;28;20025;-42
2021/12/23 13:03:13;;;;;;;34.30;19.40;;;4.20;99.90;;;;;;5034952;28;20724;-43
2021/12/23 13:05:39;;;;;;;29.17;18.58;;;4.20;99.90;;;;;;5033897;28;20386;-44
2021/12/23 13:08:24;;;;;;;30.35;18.50;;;4.30;99.90;;;;;;5034633;28;20108;-43
2021/12/23 13:10:50;;;;;;;31.25;18.60;;;4.30;99.90;;;;;;5032415;28;20515;-43
2021/12/23 13:13:33;;;;;;;28.45;17.85;;;4.30;99.90;;;;;;5034375;28;20120;-42
2021/12/23 13:16:10;;;;;;;31.67;20.20;;;4.30;99.90;;;;;;5031187;28;20142;-43
2021/12/23 13:18:35;;;;;;;33.45;20.20;;;4.30;99.90;;;;;;5035947;28;20476;-43
2021/12/23 13:21:05;;;;;;;30.95;19.60;;;4.30;99.90;;;;;;5033907;28;20072;-42
2021/12/23 13:23:43;;;;;;;30.48;18.33;;;4.40;99.90;;;;;;5033316;28;20135;-43
2021/12/23 13:26:18;;;;;;;30.75;18.17;;;4.40;99.90;;;;;;5034146;28;20079;-43
2021/12/23 13:28:46;;;;;;;31.85;20.23;;;4.40;99.90;;;;;;5033554;28;20039;-44
2021/12/23 13:31:31;;;;;;;29.95;18.73;;;4.40;99.90;;;;;;5035630;28;20036;-43
2021/12/23 13:34:03;;;;;;;38.47;21.85;;;4.40;99.90;;;;;;5034789;28;20072;-43
2021/12/23 13:36:41;;;;;;;35.35;20.33;;;4.40;99.90;;;;;;5033277;28;20138;-44
2021/12/23 13:39:10;;;;;;;34.40;20.50;;;4.40;99.90;;;;;;5034316;28;20067;-43
2021/12/23 13:41:40;;;;;;;32.55;19.20;;;4.40;99.90;;;;;;5034903;28;20108;-42
2021/12/23 13:44:15;;;;;;;34.10;20.85;;;4.40;99.90;;;;;;5031474;28;20112;-42
2021/12/23 13:46:53;;;;;;;28.80;18.38;;;4.40;99.90;;;;;;5034646;28;20374;-42
2021/12/23 13:49:19;;;;;;;32.20;19.67;;;4.50;99.90;;;;;;5033627;28;20104;-43
2021/12/23 13:51:48;;;;;;;32.88;20.02;;;4.50;99.90;;;;;;5035566;28;20056;-43
2021/12/23 13:54:16;;;;;;;33.22;20.40;;;4.50;99.90;;;;;;5038806;28;20064;-43
2021/12/23 13:56:47;;;;;;;35.33;21.13;;;4.60;99.90;;;;;;5037911;28;20032;-42